sensor_id;sensor_type;location;lat;lon;timestamp;temperature;humidity
35523;DHT22;61478;50.820;4.330;2023-12-07T00:00:13;4.20;99.90
35523;DHT22;61478;50.820;4.330;2023-12-07T00:02:38;4.30;99.90
35523;DHT22;61478;50.820;4.330;2023-12-07T00:05:04;4.20;99.90
35523;DHT22;61478;50.820;4.330;2023-12-07T00:07:30;4.20;99.90
35523;DHT22;61478;50.820;4.330;2023-12-07T00:09:55;4.10;99.90
35523;DHT22;61478;50.820;4.330;2023-12-07T00:12:21;4.10;99.90
35523;DHT22;61478;50.820;4.330;2023-12-07T00:14:47;4.10;99.90
35523;DHT22;61478;50.820;4.330;2023-12-07T00:17:12;4.20;99.90
35523;DHT22;61478;50.820;4.330;2023-12-07T00:19:39;4.20;99.90
35523;DHT22;61478;50.820;4.330;2023-12-07T00:22:04;4.30;99.90
35523;DHT22;61478;50.820;4.330;2023-12-07T00:24:30;4.30;99.90
35523;DHT22;61478;50.820;4.330;2023-12-07T00:26:57;4.20;99.90
35523;DHT22;61478;50.820;4.330;2023-12-07T00:29:22;4.30;99.90
35523;DHT22;61478;50.820;4.330;2023-12-07T00:31:48;4.30;99.90
35523;DHT22;61478;50.820;4.330;2023-12-07T00:34:13;4.40;99.90
35523;DHT22;61478;50.820;4.330;2023-12-07T00:36:39;4.50;99.90
35523;DHT22;61478;50.820;4.330;2023-12-07T00:39:06;4.30;99.90
35523;DHT22;61478;50.820;4.330;2023-12-07T00:41:32;4.20;99.90
35523;DHT22;61478;50.820;4.330;2023-12-07T00:43:57;4.20;99.90
35523;DHT22;61478;50.820;4.330;2023-12-07T00:46:23;4.20;99.90
35523;DHT22;61478;50.820;4.330;2023-12-07T00:48:49;4.30;99.90
35523;DHT22;61478;50.820;4.330;2023-12-07T00:51:15;4.20;99.90
35523;DHT22;61478;50.820;4.330;2023-12-07T00:53:41;4.20;99.90
35523;DHT22;61478;50.820;4.330;2023-12-07T00:56:06;4.30;99.90
35523;DHT22;61478;50.820;4.330;2023-12-07T00:58:32;4.20;99.90
35523;DHT22;61478;50.820;4.330;2023-12-07T01:00:58;4.20;99.90
35523;DHT22;61478;50.820;4.330;2023-12-07T01:03:23;4.10;99.90
35523;DHT22;61478;50.820;4.330;2023-12-07T01:05:49;4.20;99.90
35523;DHT22;61478;50.820;4.330;2023-12-07T01:08:15;4.20;99.90
35523;DHT22;61478;50.820;4.330;2023-12-07T01:10:40;4.20;99.90
35523;DHT22;61478;50.820;4.330;2023-12-07T01:13:06;4.20;99.90
35523;DHT22;61478;50.820;4.330;2023-12-07T01:15:31;4.10;99.90
35523;DHT22;61478;50.820;4.330;2023-12-07T01:17:57;4.10;99.90
35523;DHT22;61478;50.820;4.330;2023-12-07T01:20:23;4.10;99.90
35523;DHT22;61478;50.820;4.330;2023-12-07T01:22:48;4.10;99.90
35523;DHT22;61478;50.820;4.330;2023-12-07T01:25:14;4.10;99.90
35523;DHT22;61478;50.820;4.330;2023-12-07T01:27:45;4.10;99.90
35523;DHT22;61478;50.820;4.330;2023-12-07T01:30:10;4.20;99.90
35523;DHT22;61478;50.820;4.330;2023-12-07T01:32:36;4.20;99.90
35523;DHT22;61478;50.820;4.330;2023-12-07T01:35:02;4.20;99.90
35523;DHT22;61478;50.820;4.330;2023-12-07T01:37:28;4.20;99.90
35523;DHT22;61478;50.820;4.330;2023-12-07T01:39:55;4.10;99.90
35523;DHT22;61478;50.820;4.330;2023-12-07T01:42:20;4.10;99.90
35523;DHT22;61478;50.820;4.330;2023-12-07T01:44:46;4.10;99.90
35523;DHT22;61478;50.820;4.330;2023-12-07T01:47:11;4.00;99.90
35523;DHT22;61478;50.820;4.330;2023-12-07T01:49:37;4.00;99.90
35523;DHT22;61478;50.820;4.330;2023-12-07T01:52:03;3.90;99.90
35523;DHT22;61478;50.820;4.330;2023-12-07T01:54:29;4.00;99.90
35523;DHT22;61478;50.820;4.330;2023-12-07T01:56:55;3.90;99.90
35523;DHT22;61478;50.820;4.330;2023-12-07T01:59:21;3.90;99.90
35523;DHT22;61478;50.820;4.330;2023-12-07T02:01:48;3.80;99.90
35523;DHT22;61478;50.820;4.330;2023-12-07T02:04:14;3.90;99.90
35523;DHT22;61478;50.820;4.330;2023-12-07T02:06:40;4.00;99.90
35523;DHT22;61478;50.820;4.330;2023-12-07T02:09:05;4.00;99.90
35523;DHT22;61478;50.820;4.330;2023-12-07T02:11:31;4.00;99.90
35523;DHT22;61478;50.820;4.330;2023-12-07T02:13:56;4.00;99.90
35523;DHT22;61478;50.820;4.330;2023-12-07T02:21:44;4.00;99.90
35523;DHT22;61478;50.820;4.330;2023-12-07T02:24:13;4.00;99.90
35523;DHT22;61478;50.820;4.330;2023-12-07T02:26:41;4.00;99.90
35523;DHT22;61478;50.820;4.330;2023-12-07T02:29:07;3.90;99.90
35523;DHT22;61478;50.820;4.330;2023-12-07T02:31:34;4.00;99.90
35523;DHT22;61478;50.820;4.330;2023-12-07T02:34:00;4.00;99.90
35523;DHT22;61478;50.820;4.330;2023-12-07T02:36:27;4.10;99.90
35523;DHT22;61478;50.820;4.330;2023-12-07T02:38:55;4.20;99.90
35523;DHT22;61478;50.820;4.330;2023-12-07T02:41:21;4.20;99.90
35523;DHT22;61478;50.820;4.330;2023-12-07T02:43:47;4.30;99.90
35523;DHT22;61478;50.820;4.330;2023-12-07T02:46:13;4.20;99.90
35523;DHT22;61478;50.820;4.330;2023-12-07T02:48:39;4.20;99.90
35523;DHT22;61478;50.820;4.330;2023-12-07T02:51:05;4.10;99.90
35523;DHT22;61478;50.820;4.330;2023-12-07T02:53:30;4.20;99.90
35523;DHT22;61478;50.820;4.330;2023-12-07T02:55:56;4.30;99.90
35523;DHT22;61478;50.820;4.330;2023-12-07T02:58:22;4.20;99.90
35523;DHT22;61478;50.820;4.330;2023-12-07T03:00:47;4.20;99.90
35523;DHT22;61478;50.820;4.330;2023-12-07T03:03:13;4.10;99.90
35523;DHT22;61478;50.820;4.330;2023-12-07T03:05:39;4.20;99.90
35523;DHT22;61478;50.820;4.330;2023-12-07T03:08:04;4.20;99.90
35523;DHT22;61478;50.820;4.330;2023-12-07T03:10:30;4.30;99.90
35523;DHT22;61478;50.820;4.330;2023-12-07T03:12:56;4.30;99.90
35523;DHT22;61478;50.820;4.330;2023-12-07T03:15:21;4.30;99.90
35523;DHT22;61478;50.820;4.330;2023-12-07T03:17:48;4.30;99.90
35523;DHT22;61478;50.820;4.330;2023-12-07T03:20:14;4.30;99.90
35523;DHT22;61478;50.820;4.330;2023-12-07T03:22:40;4.20;99.90
35523;DHT22;61478;50.820;4.330;2023-12-07T03:25:06;4.20;99.90
35523;DHT22;61478;50.820;4.330;2023-12-07T03:27:32;4.20;99.90
35523;DHT22;61478;50.820;4.330;2023-12-07T03:29:57;4.20;99.90
35523;DHT22;61478;50.820;4.330;2023-12-07T03:32:23;4.30;99.90
35523;DHT22;61478;50.820;4.330;2023-12-07T03:34:49;4.20;99.90
35523;DHT22;61478;50.820;4.330;2023-12-07T03:37:14;4.30;99.90
35523;DHT22;61478;50.820;4.330;2023-12-07T03:39:40;4.30;99.90
35523;DHT22;61478;50.820;4.330;2023-12-07T03:42:06;4.40;99.90
35523;DHT22;61478;50.820;4.330;2023-12-07T03:44:31;4.30;99.90
35523;DHT22;61478;50.820;4.330;2023-12-07T03:46:57;4.30;99.90
35523;DHT22;61478;50.820;4.330;2023-12-07T03:49:22;4.20;99.90
35523;DHT22;61478;50.820;4.330;2023-12-07T03:51:48;4.30;99.90
35523;DHT22;61478;50.820;4.330;2023-12-07T03:54:14;4.30;99.90
35523;DHT22;61478;50.820;4.330;2023-12-07T03:56:39;4.30;99.90
35523;DHT22;61478;50.820;4.330;2023-12-07T03:59:08;4.30;99.90
35523;DHT22;61478;50.820;4.330;2023-12-07T04:01:33;4.50;99.90
35523;DHT22;61478;50.820;4.330;2023-12-07T04:03:59;4.70;99.90
35523;DHT22;61478;50.820;4.330;2023-12-07T04:06:26;4.70;99.90
35523;DHT22;61478;50.820;4.330;2023-12-07T04:08:52;4.60;99.90
35523;DHT22;61478;50.820;4.330;2023-12-07T04:11:18;4.50;99.90
35523;DHT22;61478;50.820;4.330;2023-12-07T04:13:43;4.50;99.90
35523;DHT22;61478;50.820;4.330;2023-12-07T04:16:09;4.50;99.90
35523;DHT22;61478;50.820;4.330;2023-12-07T04:18:36;4.60;99.90
35523;DHT22;61478;50.820;4.330;2023-12-07T04:21:01;4.50;99.90
35523;DHT22;61478;50.820;4.330;2023-12-07T04:23:28;4.40;99.90
35523;DHT22;61478;50.820;4.330;2023-12-07T04:25:55;4.30;99.90
35523;DHT22;61478;50.820;4.330;2023-12-07T04:28:20;4.40;99.90
35523;DHT22;61478;50.820;4.330;2023-12-07T04:30:46;4.70;99.90
35523;DHT22;61478;50.820;4.330;2023-12-07T04:33:12;4.80;99.90
35523;DHT22;61478;50.820;4.330;2023-12-07T04:35:38;4.90;99.90
35523;DHT22;61478;50.820;4.330;2023-12-07T04:38:03;4.70;99.90
35523;DHT22;61478;50.820;4.330;2023-12-07T04:40:29;4.40;99.90
35523;DHT22;61478;50.820;4.330;2023-12-07T04:42:55;4.30;99.90
35523;DHT22;61478;50.820;4.330;2023-12-07T04:45:20;4.10;99.90
35523;DHT22;61478;50.820;4.330;2023-12-07T04:47:46;4.20;99.90
35523;DHT22;61478;50.820;4.330;2023-12-07T04:50:11;4.10;99.90
35523;DHT22;61478;50.820;4.330;2023-12-07T04:52:37;4.00;99.90
35523;DHT22;61478;50.820;4.330;2023-12-07T04:55:03;4.00;99.90
35523;DHT22;61478;50.820;4.330;2023-12-07T04:57:30;4.00;99.90
35523;DHT22;61478;50.820;4.330;2023-12-07T04:59:55;4.00;99.90
35523;DHT22;61478;50.820;4.330;2023-12-07T05:02:21;4.00;99.90
35523;DHT22;61478;50.820;4.330;2023-12-07T05:04:47;4.20;99.90
35523;DHT22;61478;50.820;4.330;2023-12-07T05:07:13;4.30;99.90
35523;DHT22;61478;50.820;4.330;2023-12-07T05:09:39;4.30;99.90
35523;DHT22;61478;50.820;4.330;2023-12-07T05:12:05;4.30;99.90
35523;DHT22;61478;50.820;4.330;2023-12-07T05:14:31;4.20;99.90
35523;DHT22;61478;50.820;4.330;2023-12-07T05:16:57;4.20;99.90
35523;DHT22;61478;50.820;4.330;2023-12-07T05:19:23;4.20;99.90
35523;DHT22;61478;50.820;4.330;2023-12-07T05:21:48;4.10;99.90
35523;DHT22;61478;50.820;4.330;2023-12-07T05:24:14;4.00;99.90
35523;DHT22;61478;50.820;4.330;2023-12-07T05:26:41;4.10;99.90
35523;DHT22;61478;50.820;4.330;2023-12-07T05:29:06;4.10;99.90
35523;DHT22;61478;50.820;4.330;2023-12-07T05:31:32;4.20;99.90
35523;DHT22;61478;50.820;4.330;2023-12-07T05:33:58;4.20;99.90
35523;DHT22;61478;50.820;4.330;2023-12-07T05:36:24;4.30;99.90
35523;DHT22;61478;50.820;4.330;2023-12-07T05:38:49;4.30;99.90
35523;DHT22;61478;50.820;4.330;2023-12-07T05:41:15;4.40;99.90
35523;DHT22;61478;50.820;4.330;2023-12-07T05:43:41;4.50;99.90
35523;DHT22;61478;50.820;4.330;2023-12-07T05:46:07;4.40;99.90
35523;DHT22;61478;50.820;4.330;2023-12-07T05:48:33;4.40;99.90
35523;DHT22;61478;50.820;4.330;2023-12-07T05:50:58;4.40;99.90
35523;DHT22;61478;50.820;4.330;2023-12-07T05:53:24;4.30;99.90
35523;DHT22;61478;50.820;4.330;2023-12-07T05:55:50;4.10;99.90
35523;DHT22;61478;50.820;4.330;2023-12-07T05:58:16;4.00;99.90
35523;DHT22;61478;50.820;4.330;2023-12-07T06:00:43;4.00;99.90
35523;DHT22;61478;50.820;4.330;2023-12-07T06:03:09;4.00;99.90
35523;DHT22;61478;50.820;4.330;2023-12-07T06:05:37;4.10;99.90
35523;DHT22;61478;50.820;4.330;2023-12-07T06:08:03;4.00;99.90
35523;DHT22;61478;50.820;4.330;2023-12-07T06:10:29;4.00;99.90
35523;DHT22;61478;50.820;4.330;2023-12-07T06:12:56;4.10;99.90
35523;DHT22;61478;50.820;4.330;2023-12-07T06:15:23;4.00;99.90
35523;DHT22;61478;50.820;4.330;2023-12-07T06:17:49;3.80;99.90
35523;DHT22;61478;50.820;4.330;2023-12-07T06:20:15;4.00;99.90
35523;DHT22;61478;50.820;4.330;2023-12-07T06:22:41;4.00;99.90
35523;DHT22;61478;50.820;4.330;2023-12-07T06:25:06;4.00;99.90
35523;DHT22;61478;50.820;4.330;2023-12-07T06:27:34;4.00;99.90
35523;DHT22;61478;50.820;4.330;2023-12-07T06:30:00;4.10;99.90
35523;DHT22;61478;50.820;4.330;2023-12-07T06:32:27;4.30;99.90
35523;DHT22;61478;50.820;4.330;2023-12-07T06:34:53;4.30;99.90
35523;DHT22;61478;50.820;4.330;2023-12-07T06:37:19;4.50;99.90
35523;DHT22;61478;50.820;4.330;2023-12-07T06:39:45;4.30;99.90
35523;DHT22;61478;50.820;4.330;2023-12-07T06:42:11;4.30;99.90
35523;DHT22;61478;50.820;4.330;2023-12-07T06:44:37;4.30;99.90
35523;DHT22;61478;50.820;4.330;2023-12-07T06:47:02;4.40;99.90
35523;DHT22;61478;50.820;4.330;2023-12-07T06:49:30;4.30;99.90
35523;DHT22;61478;50.820;4.330;2023-12-07T06:51:55;4.40;99.90
35523;DHT22;61478;50.820;4.330;2023-12-07T06:54:21;4.40;99.90
35523;DHT22;61478;50.820;4.330;2023-12-07T06:56:47;4.30;99.90
35523;DHT22;61478;50.820;4.330;2023-12-07T06:59:13;4.30;99.90
35523;DHT22;61478;50.820;4.330;2023-12-07T07:01:39;4.30;99.90
35523;DHT22;61478;50.820;4.330;2023-12-07T07:04:05;4.20;99.90
35523;DHT22;61478;50.820;4.330;2023-12-07T07:06:31;4.30;99.90
35523;DHT22;61478;50.820;4.330;2023-12-07T07:08:56;4.40;99.90
35523;DHT22;61478;50.820;4.330;2023-12-07T07:11:22;4.50;99.90
35523;DHT22;61478;50.820;4.330;2023-12-07T07:13:48;4.60;99.90
35523;DHT22;61478;50.820;4.330;2023-12-07T07:16:13;4.40;99.90
35523;DHT22;61478;50.820;4.330;2023-12-07T07:18:39;4.30;99.90
35523;DHT22;61478;50.820;4.330;2023-12-07T07:21:06;4.50;99.90
35523;DHT22;61478;50.820;4.330;2023-12-07T07:23:32;4.60;99.90
35523;DHT22;61478;50.820;4.330;2023-12-07T07:25:57;4.70;99.90
35523;DHT22;61478;50.820;4.330;2023-12-07T07:28:23;4.70;99.90
35523;DHT22;61478;50.820;4.330;2023-12-07T07:30:49;4.80;99.90
35523;DHT22;61478;50.820;4.330;2023-12-07T07:33:16;4.70;99.90
35523;DHT22;61478;50.820;4.330;2023-12-07T07:35:42;4.70;99.90
35523;DHT22;61478;50.820;4.330;2023-12-07T07:38:08;4.60;99.90
35523;DHT22;61478;50.820;4.330;2023-12-07T07:40:33;4.70;99.90
35523;DHT22;61478;50.820;4.330;2023-12-07T07:42:59;4.80;99.90
35523;DHT22;61478;50.820;4.330;2023-12-07T07:45:25;4.90;99.90
35523;DHT22;61478;50.820;4.330;2023-12-07T07:47:50;4.70;99.90
35523;DHT22;61478;50.820;4.330;2023-12-07T07:50:16;4.80;99.90
35523;DHT22;61478;50.820;4.330;2023-12-07T07:52:43;4.90;99.90
35523;DHT22;61478;50.820;4.330;2023-12-07T07:55:09;4.90;99.90
35523;DHT22;61478;50.820;4.330;2023-12-07T07:57:35;4.90;99.90
35523;DHT22;61478;50.820;4.330;2023-12-07T08:00:01;4.80;99.90
35523;DHT22;61478;50.820;4.330;2023-12-07T08:02:26;4.80;99.90
35523;DHT22;61478;50.820;4.330;2023-12-07T08:04:52;4.90;99.90
35523;DHT22;61478;50.820;4.330;2023-12-07T08:07:18;5.00;99.90
35523;DHT22;61478;50.820;4.330;2023-12-07T08:09:44;4.80;99.90
35523;DHT22;61478;50.820;4.330;2023-12-07T08:12:09;4.70;99.90
35523;DHT22;61478;50.820;4.330;2023-12-07T08:14:35;4.60;99.90
35523;DHT22;61478;50.820;4.330;2023-12-07T08:17:01;4.60;99.90
35523;DHT22;61478;50.820;4.330;2023-12-07T08:19:27;4.70;99.90
35523;DHT22;61478;50.820;4.330;2023-12-07T08:21:52;4.80;99.90
35523;DHT22;61478;50.820;4.330;2023-12-07T08:24:18;5.00;99.90
35523;DHT22;61478;50.820;4.330;2023-12-07T08:26:44;5.00;99.90
35523;DHT22;61478;50.820;4.330;2023-12-07T08:29:09;4.80;99.90
35523;DHT22;61478;50.820;4.330;2023-12-07T08:31:35;4.70;99.90
35523;DHT22;61478;50.820;4.330;2023-12-07T08:34:00;4.70;99.90
35523;DHT22;61478;50.820;4.330;2023-12-07T08:36:26;4.80;99.90
35523;DHT22;61478;50.820;4.330;2023-12-07T08:38:52;4.70;99.90
35523;DHT22;61478;50.820;4.330;2023-12-07T08:41:18;4.70;99.90
35523;DHT22;61478;50.820;4.330;2023-12-07T08:43:44;4.80;99.90
35523;DHT22;61478;50.820;4.330;2023-12-07T08:46:09;4.70;99.90
35523;DHT22;61478;50.820;4.330;2023-12-07T08:48:38;4.60;99.90
35523;DHT22;61478;50.820;4.330;2023-12-07T08:51:04;4.60;99.90
35523;DHT22;61478;50.820;4.330;2023-12-07T08:53:29;4.50;99.90
35523;DHT22;61478;50.820;4.330;2023-12-07T08:55:55;4.70;99.90
35523;DHT22;61478;50.820;4.330;2023-12-07T08:58:21;4.80;99.90
35523;DHT22;61478;50.820;4.330;2023-12-07T09:00:47;4.80;99.90
35523;DHT22;61478;50.820;4.330;2023-12-07T09:03:12;4.80;99.90
35523;DHT22;61478;50.820;4.330;2023-12-07T09:05:38;4.70;99.90
35523;DHT22;61478;50.820;4.330;2023-12-07T09:08:04;4.80;99.90
35523;DHT22;61478;50.820;4.330;2023-12-07T09:10:30;4.80;99.90
35523;DHT22;61478;50.820;4.330;2023-12-07T09:12:56;4.90;99.90
35523;DHT22;61478;50.820;4.330;2023-12-07T09:15:21;5.00;99.90
35523;DHT22;61478;50.820;4.330;2023-12-07T09:17:47;5.00;99.90
35523;DHT22;61478;50.820;4.330;2023-12-07T09:20:14;5.20;99.90
35523;DHT22;61478;50.820;4.330;2023-12-07T09:22:43;5.20;99.90
35523;DHT22;61478;50.820;4.330;2023-12-07T09:25:09;5.20;99.90
35523;DHT22;61478;50.820;4.330;2023-12-07T09:27:36;5.30;99.90
35523;DHT22;61478;50.820;4.330;2023-12-07T09:30:06;5.40;99.90
35523;DHT22;61478;50.820;4.330;2023-12-07T09:32:32;5.40;99.90
35523;DHT22;61478;50.820;4.330;2023-12-07T09:35:04;5.70;99.90
35523;DHT22;61478;50.820;4.330;2023-12-07T09:37:29;5.80;99.90
35523;DHT22;61478;50.820;4.330;2023-12-07T09:39:55;5.60;99.90
35523;DHT22;61478;50.820;4.330;2023-12-07T09:42:21;5.40;99.90
35523;DHT22;61478;50.820;4.330;2023-12-07T09:44:47;5.40;99.90
35523;DHT22;61478;50.820;4.330;2023-12-07T09:47:12;5.40;99.90
35523;DHT22;61478;50.820;4.330;2023-12-07T09:49:39;5.30;99.90
35523;DHT22;61478;50.820;4.330;2023-12-07T09:52:06;5.60;99.90
35523;DHT22;61478;50.820;4.330;2023-12-07T09:54:33;5.90;99.90
35523;DHT22;61478;50.820;4.330;2023-12-07T09:57:00;6.20;99.90
35523;DHT22;61478;50.820;4.330;2023-12-07T09:59:26;6.40;99.90
35523;DHT22;61478;50.820;4.330;2023-12-07T10:01:52;6.30;99.90
35523;DHT22;61478;50.820;4.330;2023-12-07T10:04:21;6.10;99.90
35523;DHT22;61478;50.820;4.330;2023-12-07T10:06:49;5.90;99.90
35523;DHT22;61478;50.820;4.330;2023-12-07T10:09:16;5.80;99.90
35523;DHT22;61478;50.820;4.330;2023-12-07T10:11:41;6.10;99.90
35523;DHT22;61478;50.820;4.330;2023-12-07T10:14:08;5.90;99.90
35523;DHT22;61478;50.820;4.330;2023-12-07T10:16:34;6.00;99.90
35523;DHT22;61478;50.820;4.330;2023-12-07T10:19:16;6.00;99.90
35523;DHT22;61478;50.820;4.330;2023-12-07T10:21:44;5.80;99.90
35523;DHT22;61478;50.820;4.330;2023-12-07T10:24:10;5.60;99.90
35523;DHT22;61478;50.820;4.330;2023-12-07T10:26:37;5.60;99.90
35523;DHT22;61478;50.820;4.330;2023-12-07T10:29:04;5.70;99.90
35523;DHT22;61478;50.820;4.330;2023-12-07T10:31:31;6.00;99.90
35523;DHT22;61478;50.820;4.330;2023-12-07T10:33:58;6.20;99.90
35523;DHT22;61478;50.820;4.330;2023-12-07T10:36:24;6.40;99.90
35523;DHT22;61478;50.820;4.330;2023-12-07T10:38:50;6.40;99.90
35523;DHT22;61478;50.820;4.330;2023-12-07T10:41:16;6.30;99.90
35523;DHT22;61478;50.820;4.330;2023-12-07T10:43:43;6.20;99.90
35523;DHT22;61478;50.820;4.330;2023-12-07T10:46:10;6.30;99.90
35523;DHT22;61478;50.820;4.330;2023-12-07T10:48:40;6.10;99.90
35523;DHT22;61478;50.820;4.330;2023-12-07T10:51:07;6.20;99.90
35523;DHT22;61478;50.820;4.330;2023-12-07T10:53:43;6.10;99.90
35523;DHT22;61478;50.820;4.330;2023-12-07T10:56:10;6.20;99.90
35523;DHT22;61478;50.820;4.330;2023-12-07T10:58:36;6.20;99.90
35523;DHT22;61478;50.820;4.330;2023-12-07T11:01:02;6.30;99.90
35523;DHT22;61478;50.820;4.330;2023-12-07T11:03:28;6.20;99.90
35523;DHT22;61478;50.820;4.330;2023-12-07T11:05:57;6.30;99.90
35523;DHT22;61478;50.820;4.330;2023-12-07T11:13:29;6.40;99.90
35523;DHT22;61478;50.820;4.330;2023-12-07T11:15:59;6.50;99.90
35523;DHT22;61478;50.820;4.330;2023-12-07T11:18:25;6.70;99.90
35523;DHT22;61478;50.820;4.330;2023-12-07T11:20:52;6.70;99.90
35523;DHT22;61478;50.820;4.330;2023-12-07T11:23:18;7.00;99.90
35523;DHT22;61478;50.820;4.330;2023-12-07T11:25:45;7.10;99.90
35523;DHT22;61478;50.820;4.330;2023-12-07T11:28:11;7.00;99.90
35523;DHT22;61478;50.820;4.330;2023-12-07T11:30:37;6.80;99.90
35523;DHT22;61478;50.820;4.330;2023-12-07T11:33:04;6.80;99.90
35523;DHT22;61478;50.820;4.330;2023-12-07T11:35:30;6.60;99.90
35523;DHT22;61478;50.820;4.330;2023-12-07T11:38:07;6.70;99.90
35523;DHT22;61478;50.820;4.330;2023-12-07T11:40:36;6.70;99.90
35523;DHT22;61478;50.820;4.330;2023-12-07T11:43:02;6.80;99.90
35523;DHT22;61478;50.820;4.330;2023-12-07T11:45:37;6.70;99.90
35523;DHT22;61478;50.820;4.330;2023-12-07T11:48:07;6.80;99.90
35523;DHT22;61478;50.820;4.330;2023-12-07T11:50:32;6.60;99.90
35523;DHT22;61478;50.820;4.330;2023-12-07T11:52:58;6.70;99.90
35523;DHT22;61478;50.820;4.330;2023-12-07T11:55:24;6.80;99.90
35523;DHT22;61478;50.820;4.330;2023-12-07T11:57:50;6.70;99.90
35523;DHT22;61478;50.820;4.330;2023-12-07T12:00:17;6.60;99.90
35523;DHT22;61478;50.820;4.330;2023-12-07T12:02:42;6.60;99.90
35523;DHT22;61478;50.820;4.330;2023-12-07T12:05:09;6.60;99.90
35523;DHT22;61478;50.820;4.330;2023-12-07T12:07:36;6.60;99.90
35523;DHT22;61478;50.820;4.330;2023-12-07T12:10:02;6.70;99.90
35523;DHT22;61478;50.820;4.330;2023-12-07T12:12:29;7.00;99.90
35523;DHT22;61478;50.820;4.330;2023-12-07T12:14:55;7.00;99.90
35523;DHT22;61478;50.820;4.330;2023-12-07T12:17:20;6.80;99.90
35523;DHT22;61478;50.820;4.330;2023-12-07T12:19:46;6.90;99.90
35523;DHT22;61478;50.820;4.330;2023-12-07T12:22:12;6.90;99.90
35523;DHT22;61478;50.820;4.330;2023-12-07T12:24:37;6.70;99.90
35523;DHT22;61478;50.820;4.330;2023-12-07T12:27:05;6.60;99.90
35523;DHT22;61478;50.820;4.330;2023-12-07T12:29:31;6.60;99.90
35523;DHT22;61478;50.820;4.330;2023-12-07T12:31:57;6.60;99.90
35523;DHT22;61478;50.820;4.330;2023-12-07T12:34:23;6.70;99.90
35523;DHT22;61478;50.820;4.330;2023-12-07T12:36:49;7.00;99.90
35523;DHT22;61478;50.820;4.330;2023-12-07T12:39:15;7.30;99.90
35523;DHT22;61478;50.820;4.330;2023-12-07T12:41:41;7.00;99.90
35523;DHT22;61478;50.820;4.330;2023-12-07T12:44:08;7.00;99.90
35523;DHT22;61478;50.820;4.330;2023-12-07T12:46:34;7.10;99.90
35523;DHT22;61478;50.820;4.330;2023-12-07T12:49:00;7.10;99.90
35523;DHT22;61478;50.820;4.330;2023-12-07T12:51:26;7.30;99.90
35523;DHT22;61478;50.820;4.330;2023-12-07T12:53:52;7.00;99.90
35523;DHT22;61478;50.820;4.330;2023-12-07T12:56:19;6.60;99.90
35523;DHT22;61478;50.820;4.330;2023-12-07T12:58:52;6.50;99.90
35523;DHT22;61478;50.820;4.330;2023-12-07T13:01:17;6.60;99.90
35523;DHT22;61478;50.820;4.330;2023-12-07T13:03:44;6.60;99.90
35523;DHT22;61478;50.820;4.330;2023-12-07T13:06:11;6.50;99.90
35523;DHT22;61478;50.820;4.330;2023-12-07T13:08:37;6.50;99.90
35523;DHT22;61478;50.820;4.330;2023-12-07T13:11:03;6.50;99.90
35523;DHT22;61478;50.820;4.330;2023-12-07T13:13:29;6.50;99.90
35523;DHT22;61478;50.820;4.330;2023-12-07T13:15:55;6.40;99.90
35523;DHT22;61478;50.820;4.330;2023-12-07T13:18:20;6.40;99.90
35523;DHT22;61478;50.820;4.330;2023-12-07T13:20:46;6.40;99.90
35523;DHT22;61478;50.820;4.330;2023-12-07T13:23:12;6.50;99.90
35523;DHT22;61478;50.820;4.330;2023-12-07T13:25:37;6.50;99.90
35523;DHT22;61478;50.820;4.330;2023-12-07T13:28:03;6.50;99.90
35523;DHT22;61478;50.820;4.330;2023-12-07T13:30:29;6.50;99.90
35523;DHT22;61478;50.820;4.330;2023-12-07T13:32:59;6.70;99.90
35523;DHT22;61478;50.820;4.330;2023-12-07T13:35:25;6.50;99.90
35523;DHT22;61478;50.820;4.330;2023-12-07T13:37:50;6.60;99.90
35523;DHT22;61478;50.820;4.330;2023-12-07T13:40:16;6.60;99.90
35523;DHT22;61478;50.820;4.330;2023-12-07T13:42:42;6.70;99.90
35523;DHT22;61478;50.820;4.330;2023-12-07T13:45:08;6.80;99.90
35523;DHT22;61478;50.820;4.330;2023-12-07T13:47:33;7.00;99.90
35523;DHT22;61478;50.820;4.330;2023-12-07T13:50:02;7.00;99.90
35523;DHT22;61478;50.820;4.330;2023-12-07T13:52:29;7.10;99.90
35523;DHT22;61478;50.820;4.330;2023-12-07T13:54:55;7.10;99.90
35523;DHT22;61478;50.820;4.330;2023-12-07T13:57:21;7.10;99.90
35523;DHT22;61478;50.820;4.330;2023-12-07T13:59:49;7.00;99.90
35523;DHT22;61478;50.820;4.330;2023-12-07T14:02:16;6.80;99.90
35523;DHT22;61478;50.820;4.330;2023-12-07T14:04:41;6.60;99.90
35523;DHT22;61478;50.820;4.330;2023-12-07T14:07:11;6.70;99.90
35523;DHT22;61478;50.820;4.330;2023-12-07T14:09:37;6.90;99.90
35523;DHT22;61478;50.820;4.330;2023-12-07T14:12:03;6.90;99.90
35523;DHT22;61478;50.820;4.330;2023-12-07T14:14:29;6.70;99.90
35523;DHT22;61478;50.820;4.330;2023-12-07T14:16:54;6.40;99.90
35523;DHT22;61478;50.820;4.330;2023-12-07T14:19:20;6.30;99.90
35523;DHT22;61478;50.820;4.330;2023-12-07T14:21:46;6.40;99.90
35523;DHT22;61478;50.820;4.330;2023-12-07T14:24:12;6.50;99.90
35523;DHT22;61478;50.820;4.330;2023-12-07T14:26:41;6.80;99.90
35523;DHT22;61478;50.820;4.330;2023-12-07T14:29:07;6.80;99.90
35523;DHT22;61478;50.820;4.330;2023-12-07T14:31:35;7.00;99.90
35523;DHT22;61478;50.820;4.330;2023-12-07T14:34:02;7.20;99.90
35523;DHT22;61478;50.820;4.330;2023-12-07T14:36:28;7.30;99.90
35523;DHT22;61478;50.820;4.330;2023-12-07T14:38:54;7.50;99.90
35523;DHT22;61478;50.820;4.330;2023-12-07T14:41:20;7.70;99.90
35523;DHT22;61478;50.820;4.330;2023-12-07T14:43:48;7.60;99.90
35523;DHT22;61478;50.820;4.330;2023-12-07T14:46:13;7.60;99.90
35523;DHT22;61478;50.820;4.330;2023-12-07T14:48:39;7.60;99.90
35523;DHT22;61478;50.820;4.330;2023-12-07T14:51:05;7.70;99.90
35523;DHT22;61478;50.820;4.330;2023-12-07T14:53:30;7.80;99.90
35523;DHT22;61478;50.820;4.330;2023-12-07T14:55:56;7.80;99.90
35523;DHT22;61478;50.820;4.330;2023-12-07T14:58:23;7.90;99.90
35523;DHT22;61478;50.820;4.330;2023-12-07T15:00:50;8.00;99.90
35523;DHT22;61478;50.820;4.330;2023-12-07T15:03:16;8.10;99.90
35523;DHT22;61478;50.820;4.330;2023-12-07T15:05:43;8.10;99.90
35523;DHT22;61478;50.820;4.330;2023-12-07T15:08:09;8.10;99.90
35523;DHT22;61478;50.820;4.330;2023-12-07T15:10:36;8.00;99.90
35523;DHT22;61478;50.820;4.330;2023-12-07T15:13:02;7.80;99.90
35523;DHT22;61478;50.820;4.330;2023-12-07T15:15:28;7.80;99.90
35523;DHT22;61478;50.820;4.330;2023-12-07T15:17:54;7.80;99.90
35523;DHT22;61478;50.820;4.330;2023-12-07T15:20:19;7.90;99.90
35523;DHT22;61478;50.820;4.330;2023-12-07T15:22:45;8.00;99.90
35523;DHT22;61478;50.820;4.330;2023-12-07T15:25:12;7.80;99.90
35523;DHT22;61478;50.820;4.330;2023-12-07T15:27:37;7.80;99.90
35523;DHT22;61478;50.820;4.330;2023-12-07T15:30:03;7.80;99.90
35523;DHT22;61478;50.820;4.330;2023-12-07T15:32:32;7.70;99.90
35523;DHT22;61478;50.820;4.330;2023-12-07T15:34:58;7.70;99.90
35523;DHT22;61478;50.820;4.330;2023-12-07T15:37:23;7.70;99.90
35523;DHT22;61478;50.820;4.330;2023-12-07T15:39:50;7.50;99.90
35523;DHT22;61478;50.820;4.330;2023-12-07T15:42:16;7.50;99.90
35523;DHT22;61478;50.820;4.330;2023-12-07T15:44:42;7.70;99.90
35523;DHT22;61478;50.820;4.330;2023-12-07T15:47:08;7.70;99.90